sensor_id;sensor_type;location;lat;lon;timestamp;P1;durP1;ratioP1;P2;durP2;ratioP2
32228;SDS011;18717;48.034;11.186;2023-11-21T00:00:15;8.35;;;7.60;;
32228;SDS011;18717;48.034;11.186;2023-11-21T00:02:44;10.65;;;8.00;;
32228;SDS011;18717;48.034;11.186;2023-11-21T00:05:14;11.18;;;8.70;;
32228;SDS011;18717;48.034;11.186;2023-11-21T00:07:42;9.13;;;8.20;;
32228;SDS011;18717;48.034;11.186;2023-11-21T00:10:11;8.90;;;8.10;;
32228;SDS011;18717;48.034;11.186;2023-11-21T00:12:40;9.40;;;8.63;;
32228;SDS011;18717;48.034;11.186;2023-11-21T00:15:09;16.48;;;8.43;;
32228;SDS011;18717;48.034;11.186;2023-11-21T00:17:38;10.68;;;8.18;;
32228;SDS011;18717;48.034;11.186;2023-11-21T00:20:06;9.25;;;8.05;;
32228;SDS011;18717;48.034;11.186;2023-11-21T00:22:36;8.70;;;7.82;;
32228;SDS011;18717;48.034;11.186;2023-11-21T00:25:04;8.85;;;8.15;;
32228;SDS011;18717;48.034;11.186;2023-11-21T00:27:32;8.52;;;7.68;;
32228;SDS011;18717;48.034;11.186;2023-11-21T00:30:01;8.73;;;7.70;;
32228;SDS011;18717;48.034;11.186;2023-11-21T00:32:31;9.02;;;8.15;;
32228;SDS011;18717;48.034;11.186;2023-11-21T00:35:00;8.88;;;7.82;;
32228;SDS011;18717;48.034;11.186;2023-11-21T00:37:28;8.90;;;8.15;;
32228;SDS011;18717;48.034;11.186;2023-11-21T00:39:57;9.00;;;7.85;;
32228;SDS011;18717;48.034;11.186;2023-11-21T00:42:24;10.98;;;8.02;;
32228;SDS011;18717;48.034;11.186;2023-11-21T00:44:53;10.43;;;8.25;;
32228;SDS011;18717;48.034;11.186;2023-11-21T00:47:21;9.02;;;8.18;;
32228;SDS011;18717;48.034;11.186;2023-11-21T00:49:49;8.75;;;8.00;;
32228;SDS011;18717;48.034;11.186;2023-11-21T00:52:16;10.32;;;8.52;;
32228;SDS011;18717;48.034;11.186;2023-11-21T00:54:44;9.25;;;8.32;;
32228;SDS011;18717;48.034;11.186;2023-11-21T00:57:15;9.63;;;8.93;;
32228;SDS011;18717;48.034;11.186;2023-11-21T00:59:43;9.75;;;8.75;;
32228;SDS011;18717;48.034;11.186;2023-11-21T01:02:11;9.68;;;8.98;;
32228;SDS011;18717;48.034;11.186;2023-11-21T01:04:39;8.48;;;7.88;;
32228;SDS011;18717;48.034;11.186;2023-11-21T01:07:07;8.43;;;7.60;;
32228;SDS011;18717;48.034;11.186;2023-11-21T01:09:35;8.55;;;7.47;;
32228;SDS011;18717;48.034;11.186;2023-11-21T01:12:03;10.85;;;8.43;;
32228;SDS011;18717;48.034;11.186;2023-11-21T01:14:32;8.57;;;7.93;;
32228;SDS011;18717;48.034;11.186;2023-11-21T01:17:00;9.70;;;8.02;;
32228;SDS011;18717;48.034;11.186;2023-11-21T01:19:28;8.57;;;7.93;;
32228;SDS011;18717;48.034;11.186;2023-11-21T01:21:56;8.15;;;7.57;;
32228;SDS011;18717;48.034;11.186;2023-11-21T01:24:24;10.90;;;8.07;;
32228;SDS011;18717;48.034;11.186;2023-11-21T01:26:52;9.95;;;8.55;;
32228;SDS011;18717;48.034;11.186;2023-11-21T01:29:19;8.68;;;7.85;;
32228;SDS011;18717;48.034;11.186;2023-11-21T01:31:48;7.80;;;7.40;;
32228;SDS011;18717;48.034;11.186;2023-11-21T01:34:16;7.97;;;7.43;;
32228;SDS011;18717;48.034;11.186;2023-11-21T01:36:45;12.85;;;8.15;;
32228;SDS011;18717;48.034;11.186;2023-11-21T01:39:13;8.25;;;7.80;;
32228;SDS011;18717;48.034;11.186;2023-11-21T01:41:42;9.88;;;8.20;;
32228;SDS011;18717;48.034;11.186;2023-11-21T01:44:11;8.07;;;7.40;;
32228;SDS011;18717;48.034;11.186;2023-11-21T01:46:39;9.20;;;8.07;;
32228;SDS011;18717;48.034;11.186;2023-11-21T01:49:09;8.43;;;8.02;;
32228;SDS011;18717;48.034;11.186;2023-11-21T01:51:39;8.98;;;8.10;;
32228;SDS011;18717;48.034;11.186;2023-11-21T01:54:08;9.55;;;8.65;;
32228;SDS011;18717;48.034;11.186;2023-11-21T01:56:43;7.95;;;7.25;;
32228;SDS011;18717;48.034;11.186;2023-11-21T01:59:11;11.38;;;8.40;;
32228;SDS011;18717;48.034;11.186;2023-11-21T02:01:39;8.10;;;7.47;;
32228;SDS011;18717;48.034;11.186;2023-11-21T02:04:07;9.68;;;8.88;;
32228;SDS011;18717;48.034;11.186;2023-11-21T02:06:37;8.90;;;8.25;;
32228;SDS011;18717;48.034;11.186;2023-11-21T02:09:05;9.00;;;8.40;;
32228;SDS011;18717;48.034;11.186;2023-11-21T02:11:32;8.52;;;7.75;;
32228;SDS011;18717;48.034;11.186;2023-11-21T02:14:01;13.00;;;8.10;;
32228;SDS011;18717;48.034;11.186;2023-11-21T02:16:29;8.48;;;7.90;;
32228;SDS011;18717;48.034;11.186;2023-11-21T02:18:57;8.20;;;7.70;;
32228;SDS011;18717;48.034;11.186;2023-11-21T02:21:26;8.52;;;7.60;;
32228;SDS011;18717;48.034;11.186;2023-11-21T02:23:55;8.68;;;8.07;;
32228;SDS011;18717;48.034;11.186;2023-11-21T02:26:23;8.38;;;7.53;;
32228;SDS011;18717;48.034;11.186;2023-11-21T02:28:52;10.60;;;8.02;;
32228;SDS011;18717;48.034;11.186;2023-11-21T02:31:20;14.35;;;8.32;;
32228;SDS011;18717;48.034;11.186;2023-11-21T02:33:49;10.38;;;9.55;;
32228;SDS011;18717;48.034;11.186;2023-11-21T02:36:17;8.30;;;7.68;;
32228;SDS011;18717;48.034;11.186;2023-11-21T02:38:45;9.07;;;8.35;;
32228;SDS011;18717;48.034;11.186;2023-11-21T02:41:14;8.25;;;7.47;;
32228;SDS011;18717;48.034;11.186;2023-11-21T02:43:41;12.20;;;8.50;;
32228;SDS011;18717;48.034;11.186;2023-11-21T02:46:09;9.07;;;7.43;;
32228;SDS011;18717;48.034;11.186;2023-11-21T02:48:37;7.93;;;7.32;;
32228;SDS011;18717;48.034;11.186;2023-11-21T02:51:05;8.32;;;7.75;;
32228;SDS011;18717;48.034;11.186;2023-11-21T02:53:33;9.05;;;8.10;;
32228;SDS011;18717;48.034;11.186;2023-11-21T02:56:01;7.78;;;7.30;;
32228;SDS011;18717;48.034;11.186;2023-11-21T02:58:30;10.55;;;7.82;;
32228;SDS011;18717;48.034;11.186;2023-11-21T03:00:58;8.43;;;7.72;;
32228;SDS011;18717;48.034;11.186;2023-11-21T03:03:26;10.13;;;8.07;;
32228;SDS011;18717;48.034;11.186;2023-11-21T03:05:54;8.40;;;7.50;;
32228;SDS011;18717;48.034;11.186;2023-11-21T03:08:21;7.57;;;7.18;;
32228;SDS011;18717;48.034;11.186;2023-11-21T03:10:49;7.55;;;7.15;;
32228;SDS011;18717;48.034;11.186;2023-11-21T03:13:17;7.80;;;7.15;;
32228;SDS011;18717;48.034;11.186;2023-11-21T03:15:46;9.27;;;8.27;;
32228;SDS011;18717;48.034;11.186;2023-11-21T03:18:14;7.68;;;7.18;;
32228;SDS011;18717;48.034;11.186;2023-11-21T03:20:43;7.63;;;7.13;;
32228;SDS011;18717;48.034;11.186;2023-11-21T03:23:12;7.65;;;7.15;;
32228;SDS011;18717;48.034;11.186;2023-11-21T03:25:40;8.38;;;7.60;;
32228;SDS011;18717;48.034;11.186;2023-11-21T03:28:08;8.55;;;7.80;;
32228;SDS011;18717;48.034;11.186;2023-11-21T03:30:35;8.20;;;7.57;;
32228;SDS011;18717;48.034;11.186;2023-11-21T03:33:04;7.15;;;6.75;;
32228;SDS011;18717;48.034;11.186;2023-11-21T03:35:34;7.68;;;7.18;;
32228;SDS011;18717;48.034;11.186;2023-11-21T03:38:02;8.07;;;7.43;;
32228;SDS011;18717;48.034;11.186;2023-11-21T03:40:30;7.60;;;7.22;;
32228;SDS011;18717;48.034;11.186;2023-11-21T03:42:59;8.05;;;7.57;;
32228;SDS011;18717;48.034;11.186;2023-11-21T03:45:26;7.30;;;6.78;;
32228;SDS011;18717;48.034;11.186;2023-11-21T03:47:54;8.05;;;7.47;;
32228;SDS011;18717;48.034;11.186;2023-11-21T03:50:23;7.78;;;7.28;;
32228;SDS011;18717;48.034;11.186;2023-11-21T03:52:51;7.75;;;7.32;;
32228;SDS011;18717;48.034;11.186;2023-11-21T03:55:19;7.97;;;7.22;;
32228;SDS011;18717;48.034;11.186;2023-11-21T03:57:47;8.35;;;7.55;;
32228;SDS011;18717;48.034;11.186;2023-11-21T04:00:15;9.07;;;7.95;;
32228;SDS011;18717;48.034;11.186;2023-11-21T04:02:43;8.45;;;7.43;;
32228;SDS011;18717;48.034;11.186;2023-11-21T04:05:11;8.65;;;7.97;;
32228;SDS011;18717;48.034;11.186;2023-11-21T04:07:40;7.85;;;7.45;;
32228;SDS011;18717;48.034;11.186;2023-11-21T04:10:08;8.38;;;7.65;;
32228;SDS011;18717;48.034;11.186;2023-11-21T04:12:38;8.05;;;7.32;;
32228;SDS011;18717;48.034;11.186;2023-11-21T04:15:07;8.30;;;7.38;;
32228;SDS011;18717;48.034;11.186;2023-11-21T04:17:36;7.90;;;7.50;;
32228;SDS011;18717;48.034;11.186;2023-11-21T04:20:04;7.43;;;7.07;;
32228;SDS011;18717;48.034;11.186;2023-11-21T04:22:36;6.80;;;5.25;;
32228;SDS011;18717;48.034;11.186;2023-11-21T04:25:09;7.50;;;7.20;;
32228;SDS011;18717;48.034;11.186;2023-11-21T04:27:38;7.90;;;7.60;;
32228;SDS011;18717;48.034;11.186;2023-11-21T04:30:06;7.68;;;7.18;;
32228;SDS011;18717;48.034;11.186;2023-11-21T04:32:36;7.82;;;7.25;;
32228;SDS011;18717;48.034;11.186;2023-11-21T04:35:04;8.25;;;7.65;;
32228;SDS011;18717;48.034;11.186;2023-11-21T04:37:32;8.35;;;7.75;;
32228;SDS011;18717;48.034;11.186;2023-11-21T04:40:00;8.25;;;7.55;;
32228;SDS011;18717;48.034;11.186;2023-11-21T04:42:34;8.38;;;7.88;;
32228;SDS011;18717;48.034;11.186;2023-11-21T04:45:02;8.45;;;7.90;;
32228;SDS011;18717;48.034;11.186;2023-11-21T04:47:34;9.48;;;7.93;;
32228;SDS011;18717;48.034;11.186;2023-11-21T04:50:02;10.07;;;8.35;;
32228;SDS011;18717;48.034;11.186;2023-11-21T04:52:30;7.40;;;6.88;;
32228;SDS011;18717;48.034;11.186;2023-11-21T04:54:59;12.27;;;7.18;;
32228;SDS011;18717;48.034;11.186;2023-11-21T04:57:27;8.00;;;7.30;;
32228;SDS011;18717;48.034;11.186;2023-11-21T04:59:57;7.05;;;6.65;;
32228;SDS011;18717;48.034;11.186;2023-11-21T05:02:25;7.63;;;7.03;;
32228;SDS011;18717;48.034;11.186;2023-11-21T05:05:01;7.88;;;7.32;;
32228;SDS011;18717;48.034;11.186;2023-11-21T05:07:32;8.47;;;7.77;;
32228;SDS011;18717;48.034;11.186;2023-11-21T05:10:02;7.22;;;6.70;;
32228;SDS011;18717;48.034;11.186;2023-11-21T05:12:34;7.53;;;6.88;;
32228;SDS011;18717;48.034;11.186;2023-11-21T05:15:05;7.28;;;6.88;;
32228;SDS011;18717;48.034;11.186;2023-11-21T05:17:36;7.82;;;7.10;;
32228;SDS011;18717;48.034;11.186;2023-11-21T05:20:06;8.05;;;7.38;;
32228;SDS011;18717;48.034;11.186;2023-11-21T05:22:36;7.45;;;7.03;;
32228;SDS011;18717;48.034;11.186;2023-11-21T05:25:05;8.45;;;7.75;;
32228;SDS011;18717;48.034;11.186;2023-11-21T05:27:34;7.40;;;6.85;;
32228;SDS011;18717;48.034;11.186;2023-11-21T05:30:02;8.68;;;7.95;;
32228;SDS011;18717;48.034;11.186;2023-11-21T05:32:33;8.50;;;7.90;;
32228;SDS011;18717;48.034;11.186;2023-11-21T05:35:01;7.95;;;7.25;;
32228;SDS011;18717;48.034;11.186;2023-11-21T05:37:29;8.38;;;7.97;;
32228;SDS011;18717;48.034;11.186;2023-11-21T05:39:57;7.53;;;7.13;;
32228;SDS011;18717;48.034;11.186;2023-11-21T05:42:26;7.50;;;7.00;;
32228;SDS011;18717;48.034;11.186;2023-11-21T05:44:53;7.88;;;7.32;;
32228;SDS011;18717;48.034;11.186;2023-11-21T05:47:23;7.38;;;7.00;;
32228;SDS011;18717;48.034;11.186;2023-11-21T05:49:52;7.82;;;7.32;;
32228;SDS011;18717;48.034;11.186;2023-11-21T05:52:20;9.32;;;7.95;;
32228;SDS011;18717;48.034;11.186;2023-11-21T05:54:48;8.25;;;7.07;;
32228;SDS011;18717;48.034;11.186;2023-11-21T05:57:15;7.72;;;7.22;;
32228;SDS011;18717;48.034;11.186;2023-11-21T05:59:44;8.15;;;7.65;;
32228;SDS011;18717;48.034;11.186;2023-11-21T06:02:12;7.85;;;7.45;;
32228;SDS011;18717;48.034;11.186;2023-11-21T06:04:41;7.78;;;7.45;;
32228;SDS011;18717;48.034;11.186;2023-11-21T06:07:09;7.88;;;7.38;;
32228;SDS011;18717;48.034;11.186;2023-11-21T06:09:37;7.45;;;6.95;;
32228;SDS011;18717;48.034;11.186;2023-11-21T06:12:05;7.53;;;7.18;;
32228;SDS011;18717;48.034;11.186;2023-11-21T06:14:34;7.35;;;7.00;;
32228;SDS011;18717;48.034;11.186;2023-11-21T06:17:03;6.95;;;6.63;;
32228;SDS011;18717;48.034;11.186;2023-11-21T06:19:31;7.93;;;7.60;;
32228;SDS011;18717;48.034;11.186;2023-11-21T06:22:00;6.85;;;6.55;;
32228;SDS011;18717;48.034;11.186;2023-11-21T06:24:28;7.40;;;6.80;;
32228;SDS011;18717;48.034;11.186;2023-11-21T06:26:56;7.57;;;7.07;;
32228;SDS011;18717;48.034;11.186;2023-11-21T06:29:25;6.90;;;6.50;;
32228;SDS011;18717;48.034;11.186;2023-11-21T06:31:53;7.75;;;7.10;;
32228;SDS011;18717;48.034;11.186;2023-11-21T06:34:21;7.05;;;6.65;;
32228;SDS011;18717;48.034;11.186;2023-11-21T06:36:50;7.63;;;7.00;;
32228;SDS011;18717;48.034;11.186;2023-11-21T06:39:20;8.48;;;7.90;;
32228;SDS011;18717;48.034;11.186;2023-11-21T06:41:50;7.13;;;6.82;;
32228;SDS011;18717;48.034;11.186;2023-11-21T06:44:17;7.50;;;6.90;;
32228;SDS011;18717;48.034;11.186;2023-11-21T06:46:46;7.15;;;6.75;;
32228;SDS011;18717;48.034;11.186;2023-11-21T06:49:15;7.28;;;6.78;;
32228;SDS011;18717;48.034;11.186;2023-11-21T06:51:43;8.57;;;8.07;;
32228;SDS011;18717;48.034;11.186;2023-11-21T06:54:19;7.88;;;7.38;;
32228;SDS011;18717;48.034;11.186;2023-11-21T06:56:48;8.45;;;7.90;;
32228;SDS011;18717;48.034;11.186;2023-11-21T06:59:15;8.20;;;7.80;;
32228;SDS011;18717;48.034;11.186;2023-11-21T07:01:43;8.10;;;7.50;;
32228;SDS011;18717;48.034;11.186;2023-11-21T07:04:11;7.85;;;7.35;;
32228;SDS011;18717;48.034;11.186;2023-11-21T07:06:39;9.07;;;8.35;;
32228;SDS011;18717;48.034;11.186;2023-11-21T07:09:07;7.45;;;6.85;;
32228;SDS011;18717;48.034;11.186;2023-11-21T07:11:37;8.50;;;7.90;;
32228;SDS011;18717;48.034;11.186;2023-11-21T07:14:09;8.35;;;7.57;;
32228;SDS011;18717;48.034;11.186;2023-11-21T07:16:37;8.57;;;8.00;;
32228;SDS011;18717;48.034;11.186;2023-11-21T07:19:05;7.80;;;7.30;;
32228;SDS011;18717;48.034;11.186;2023-11-21T07:21:33;8.02;;;7.63;;
32228;SDS011;18717;48.034;11.186;2023-11-21T07:24:02;7.95;;;7.45;;
32228;SDS011;18717;48.034;11.186;2023-11-21T07:26:30;7.78;;;7.38;;
32228;SDS011;18717;48.034;11.186;2023-11-21T07:29:00;7.10;;;6.80;;
32228;SDS011;18717;48.034;11.186;2023-11-21T07:31:29;7.05;;;6.75;;
32228;SDS011;18717;48.034;11.186;2023-11-21T07:34:00;7.45;;;7.07;;
32228;SDS011;18717;48.034;11.186;2023-11-21T07:36:28;7.47;;;7.07;;
32228;SDS011;18717;48.034;11.186;2023-11-21T07:38:56;8.02;;;7.53;;
32228;SDS011;18717;48.034;11.186;2023-11-21T07:41:26;7.43;;;7.07;;
32228;SDS011;18717;48.034;11.186;2023-11-21T07:43:57;7.28;;;6.97;;
32228;SDS011;18717;48.034;11.186;2023-11-21T07:46:27;6.95;;;6.65;;
32228;SDS011;18717;48.034;11.186;2023-11-21T07:48:55;7.10;;;6.80;;
32228;SDS011;18717;48.034;11.186;2023-11-21T07:51:22;7.38;;;6.90;;
32228;SDS011;18717;48.034;11.186;2023-11-21T07:53:50;7.38;;;6.88;;
32228;SDS011;18717;48.034;11.186;2023-11-21T07:56:18;7.13;;;6.72;;
32228;SDS011;18717;48.034;11.186;2023-11-21T07:58:46;7.97;;;7.35;;
32228;SDS011;18717;48.034;11.186;2023-11-21T08:01:16;7.10;;;6.80;;
32228;SDS011;18717;48.034;11.186;2023-11-21T08:03:45;7.60;;;7.10;;
32228;SDS011;18717;48.034;11.186;2023-11-21T08:06:18;6.80;;;6.50;;
32228;SDS011;18717;48.034;11.186;2023-11-21T08:08:45;7.82;;;7.47;;
32228;SDS011;18717;48.034;11.186;2023-11-21T08:11:13;8.23;;;7.70;;
32228;SDS011;18717;48.034;11.186;2023-11-21T08:13:41;7.65;;;7.05;;
32228;SDS011;18717;48.034;11.186;2023-11-21T08:16:09;7.25;;;6.80;;
32228;SDS011;18717;48.034;11.186;2023-11-21T08:18:37;8.05;;;7.65;;
32228;SDS011;18717;48.034;11.186;2023-11-21T08:21:08;8.15;;;7.50;;
32228;SDS011;18717;48.034;11.186;2023-11-21T08:23:38;7.72;;;7.22;;
32228;SDS011;18717;48.034;11.186;2023-11-21T08:26:06;7.45;;;7.03;;
32228;SDS011;18717;48.034;11.186;2023-11-21T08:28:35;7.63;;;7.25;;
32228;SDS011;18717;48.034;11.186;2023-11-21T08:31:03;7.68;;;7.32;;
32228;SDS011;18717;48.034;11.186;2023-11-21T08:33:31;7.55;;;7.15;;
32228;SDS011;18717;48.034;11.186;2023-11-21T08:35:59;7.70;;;7.32;;
32228;SDS011;18717;48.034;11.186;2023-11-21T08:38:29;7.28;;;6.70;;
32228;SDS011;18717;48.034;11.186;2023-11-21T08:40:57;7.40;;;7.00;;
32228;SDS011;18717;48.034;11.186;2023-11-21T08:43:25;7.03;;;6.68;;
32228;SDS011;18717;48.034;11.186;2023-11-21T08:45:53;7.68;;;7.35;;
32228;SDS011;18717;48.034;11.186;2023-11-21T08:48:21;7.78;;;7.38;;
32228;SDS011;18717;48.034;11.186;2023-11-21T08:50:49;8.20;;;7.65;;
32228;SDS011;18717;48.034;11.186;2023-11-21T08:53:17;9.23;;;8.40;;
32228;SDS011;18717;48.034;11.186;2023-11-21T08:55:46;8.13;;;7.68;;
32228;SDS011;18717;48.034;11.186;2023-11-21T08:58:16;8.07;;;7.47;;
32228;SDS011;18717;48.034;11.186;2023-11-21T09:00:44;8.35;;;7.72;;
32228;SDS011;18717;48.034;11.186;2023-11-21T09:03:12;8.48;;;7.88;;
32228;SDS011;18717;48.034;11.186;2023-11-21T09:05:40;7.82;;;7.22;;
32228;SDS011;18717;48.034;11.186;2023-11-21T09:08:08;8.10;;;7.63;;
32228;SDS011;18717;48.034;11.186;2023-11-21T09:10:36;8.50;;;8.00;;
32228;SDS011;18717;48.034;11.186;2023-11-21T09:13:07;7.57;;;7.05;;
32228;SDS011;18717;48.034;11.186;2023-11-21T09:15:35;7.75;;;7.20;;
32228;SDS011;18717;48.034;11.186;2023-11-21T09:18:03;7.55;;;7.15;;
32228;SDS011;18717;48.034;11.186;2023-11-21T09:20:32;7.72;;;7.32;;
32228;SDS011;18717;48.034;11.186;2023-11-21T09:22:59;7.78;;;7.28;;
32228;SDS011;18717;48.034;11.186;2023-11-21T09:25:27;7.90;;;7.50;;
32228;SDS011;18717;48.034;11.186;2023-11-21T09:27:56;8.30;;;7.88;;
32228;SDS011;18717;48.034;11.186;2023-11-21T09:30:26;8.68;;;7.97;;
32228;SDS011;18717;48.034;11.186;2023-11-21T09:32:53;8.35;;;7.90;;
32228;SDS011;18717;48.034;11.186;2023-11-21T09:35:21;7.93;;;7.43;;
32228;SDS011;18717;48.034;11.186;2023-11-21T09:37:50;7.93;;;7.30;;
32228;SDS011;18717;48.034;11.186;2023-11-21T09:40:20;8.27;;;7.78;;
32228;SDS011;18717;48.034;11.186;2023-11-21T09:42:52;8.63;;;8.18;;
32228;SDS011;18717;48.034;11.186;2023-11-21T09:45:26;8.15;;;7.65;;
32228;SDS011;18717;48.034;11.186;2023-11-21T09:47:55;8.40;;;7.78;;
32228;SDS011;18717;48.034;11.186;2023-11-21T09:50:23;7.78;;;7.38;;
32228;SDS011;18717;48.034;11.186;2023-11-21T09:52:57;8.23;;;7.82;;
32228;SDS011;18717;48.034;11.186;2023-11-21T09:55:27;7.60;;;7.30;;
32228;SDS011;18717;48.034;11.186;2023-11-21T09:57:56;7.65;;;7.07;;
32228;SDS011;18717;48.034;11.186;2023-11-21T10:00:26;7.85;;;7.40;;
32228;SDS011;18717;48.034;11.186;2023-11-21T10:02:54;8.18;;;7.63;;
32228;SDS011;18717;48.034;11.186;2023-11-21T10:05:23;9.35;;;8.73;;
32228;SDS011;18717;48.034;11.186;2023-11-21T10:07:54;8.00;;;7.60;;
32228;SDS011;18717;48.034;11.186;2023-11-21T10:10:24;8.30;;;7.90;;
32228;SDS011;18717;48.034;11.186;2023-11-21T10:12:54;10.25;;;8.05;;
32228;SDS011;18717;48.034;11.186;2023-11-21T10:15:23;8.30;;;7.90;;
32228;SDS011;18717;48.034;11.186;2023-11-21T10:17:55;7.82;;;7.43;;
32228;SDS011;18717;48.034;11.186;2023-11-21T10:20:24;8.73;;;8.30;;
32228;SDS011;18717;48.034;11.186;2023-11-21T10:22:53;8.80;;;8.13;;
32228;SDS011;18717;48.034;11.186;2023-11-21T10:25:21;9.07;;;8.45;;
32228;SDS011;18717;48.034;11.186;2023-11-21T10:27:49;8.70;;;7.93;;
32228;SDS011;18717;48.034;11.186;2023-11-21T10:30:18;8.35;;;7.97;;
32228;SDS011;18717;48.034;11.186;2023-11-21T10:32:46;7.90;;;7.40;;
32228;SDS011;18717;48.034;11.186;2023-11-21T10:35:15;8.35;;;7.95;;
32228;SDS011;18717;48.034;11.186;2023-11-21T10:37:43;8.05;;;7.53;;
32228;SDS011;18717;48.034;11.186;2023-11-21T10:40:11;9.63;;;8.90;;
32228;SDS011;18717;48.034;11.186;2023-11-21T10:42:42;8.60;;;8.20;;
32228;SDS011;18717;48.034;11.186;2023-11-21T10:45:11;8.73;;;8.32;;
32228;SDS011;18717;48.034;11.186;2023-11-21T10:47:41;8.80;;;8.20;;
32228;SDS011;18717;48.034;11.186;2023-11-21T10:50:09;9.15;;;8.55;;
32228;SDS011;18717;48.034;11.186;2023-11-21T10:52:41;9.45;;;8.65;;
32228;SDS011;18717;48.034;11.186;2023-11-21T10:55:17;9.07;;;8.27;;
32228;SDS011;18717;48.034;11.186;2023-11-21T10:57:48;9.07;;;8.18;;
32228;SDS011;18717;48.034;11.186;2023-11-21T11:00:29;8.65;;;8.25;;
32228;SDS011;18717;48.034;11.186;2023-11-21T11:02:57;8.93;;;8.32;;
32228;SDS011;18717;48.034;11.186;2023-11-21T11:05:29;8.77;;;8.25;;
32228;SDS011;18717;48.034;11.186;2023-11-21T11:08:02;9.02;;;8.63;;
32228;SDS011;18717;48.034;11.186;2023-11-21T11:10:32;8.88;;;8.38;;
32228;SDS011;18717;48.034;11.186;2023-11-21T11:13:01;9.05;;;8.73;;
32228;SDS011;18717;48.034;11.186;2023-11-21T11:15:30;8.80;;;8.38;;
32228;SDS011;18717;48.034;11.186;2023-11-21T11:17:58;8.40;;;7.88;;
32228;SDS011;18717;48.034;11.186;2023-11-21T11:20:34;8.20;;;7.80;;
32228;SDS011;18717;48.034;11.186;2023-11-21T11:23:22;8.68;;;7.82;;
32228;SDS011;18717;48.034;11.186;2023-11-21T11:26:04;8.35;;;7.90;;
32228;SDS011;18717;48.034;11.186;2023-11-21T11:28:41;8.52;;;8.05;;
32228;SDS011;18717;48.034;11.186;2023-11-21T11:31:13;8.75;;;8.10;;
32228;SDS011;18717;48.034;11.186;2023-11-21T11:33:48;9.80;;;8.88;;
32228;SDS011;18717;48.034;11.186;2023-11-21T11:36:22;10.15;;;9.38;;
32228;SDS011;18717;48.034;11.186;2023-11-21T11:38:54;8.70;;;8.23;;
32228;SDS011;18717;48.034;11.186;2023-11-21T11:41:27;9.43;;;8.70;;
32228;SDS011;18717;48.034;11.186;2023-11-21T11:43:56;8.98;;;8.38;;
32228;SDS011;18717;48.034;11.186;2023-11-21T11:49:08;8.90;;;8.40;;
32228;SDS011;18717;48.034;11.186;2023-11-21T11:51:39;9.77;;;9.07;;
32228;SDS011;18717;48.034;11.186;2023-11-21T11:54:08;9.82;;;9.15;;
32228;SDS011;18717;48.034;11.186;2023-11-21T11:56:37;8.45;;;7.95;;
32228;SDS011;18717;48.034;11.186;2023-11-21T11:59:06;8.80;;;8.30;;
32228;SDS011;18717;48.034;11.186;2023-11-21T12:01:36;8.68;;;8.20;;
32228;SDS011;18717;48.034;11.186;2023-11-21T12:07:01;8.73;;;8.25;;
32228;SDS011;18717;48.034;11.186;2023-11-21T12:09:33;9.10;;;8.50;;
32228;SDS011;18717;48.034;11.186;2023-11-21T12:12:01;9.15;;;8.65;;
32228;SDS011;18717;48.034;11.186;2023-11-21T12:14:30;9.30;;;8.70;;
32228;SDS011;18717;48.034;11.186;2023-11-21T12:16:58;9.43;;;8.90;;
32228;SDS011;18717;48.034;11.186;2023-11-21T12:19:26;9.02;;;8.50;;
32228;SDS011;18717;48.034;11.186;2023-11-21T12:21:54;9.98;;;9.30;;
32228;SDS011;18717;48.034;11.186;2023-11-21T12:24:22;9.30;;;8.77;;
32228;SDS011;18717;48.034;11.186;2023-11-21T12:26:54;9.45;;;8.82;;
32228;SDS011;18717;48.034;11.186;2023-11-21T12:29:22;9.52;;;8.80;;
32228;SDS011;18717;48.034;11.186;2023-11-21T12:31:50;8.70;;;8.20;;
32228;SDS011;18717;48.034;11.186;2023-11-21T12:34:18;9.18;;;8.68;;
32228;SDS011;18717;48.034;11.186;2023-11-21T12:36:48;9.05;;;8.55;;
32228;SDS011;18717;48.034;11.186;2023-11-21T12:39:15;9.07;;;8.57;;
32228;SDS011;18717;48.034;11.186;2023-11-21T12:41:43;8.98;;;8.45;;
32228;SDS011;18717;48.034;11.186;2023-11-21T12:44:13;8.80;;;8.32;;
32228;SDS011;18717;48.034;11.186;2023-11-21T12:46:42;9.05;;;8.57;;
32228;SDS011;18717;48.034;11.186;2023-11-21T12:49:11;9.43;;;8.93;;
32228;SDS011;18717;48.034;11.186;2023-11-21T12:51:44;8.65;;;8.15;;
32228;SDS011;18717;48.034;11.186;2023-11-21T12:54:13;8.98;;;8.52;;
32228;SDS011;18717;48.034;11.186;2023-11-21T12:56:44;8.95;;;8.43;;
32228;SDS011;18717;48.034;11.186;2023-11-21T12:59:15;9.20;;;8.50;;
32228;SDS011;18717;48.034;11.186;2023-11-21T13:01:44;9.07;;;8.57;;
32228;SDS011;18717;48.034;11.186;2023-11-21T13:04:13;8.38;;;8.02;;
32228;SDS011;18717;48.034;11.186;2023-11-21T13:06:41;8.63;;;8.10;;
32228;SDS011;18717;48.034;11.186;2023-11-21T13:09:09;9.40;;;8.63;;
32228;SDS011;18717;48.034;11.186;2023-11-21T13:11:39;9.00;;;8.60;;
32228;SDS011;18717;48.034;11.186;2023-11-21T13:14:07;9.60;;;8.93;;
32228;SDS011;18717;48.034;11.186;2023-11-21T13:16:39;9.57;;;9.07;;
32228;SDS011;18717;48.034;11.186;2023-11-21T13:19:12;8.88;;;8.38;;
32228;SDS011;18717;48.034;11.186;2023-11-21T13:21:40;9.20;;;8.40;;
32228;SDS011;18717;48.034;11.186;2023-11-21T13:24:08;9.05;;;8.55;;
32228;SDS011;18717;48.034;11.186;2023-11-21T13:26:36;9.07;;;8.68;;
32228;SDS011;18717;48.034;11.186;2023-11-21T13:29:05;9.20;;;8.80;;
32228;SDS011;18717;48.034;11.186;2023-11-21T13:31:33;9.18;;;8.45;;
32228;SDS011;18717;48.034;11.186;2023-11-21T13:34:05;9.35;;;8.85;;
32228;SDS011;18717;48.034;11.186;2023-11-21T13:36:35;9.30;;;8.73;;
32228;SDS011;18717;48.034;11.186;2023-11-21T13:39:02;8.95;;;8.38;;
32228;SDS011;18717;48.034;11.186;2023-11-21T13:41:34;8.73;;;8.32;;
32228;SDS011;18717;48.034;11.186;2023-11-21T13:44:05;9.23;;;8.70;;
32228;SDS011;18717;48.034;11.186;2023-11-21T13:46:42;9.10;;;8.60;;
32228;SDS011;18717;48.034;11.186;2023-11-21T13:49:13;8.80;;;8.40;;
32228;SDS011;18717;48.034;11.186;2023-11-21T13:51:42;9.02;;;8.52;;
32228;SDS011;18717;48.034;11.186;2023-11-21T13:54:11;9.00;;;8.60;;
32228;SDS011;18717;48.034;11.186;2023-11-21T13:56:41;8.93;;;8.43;;
32228;SDS011;18717;48.034;11.186;2023-11-21T13:59:11;8.93;;;8.52;;
32228;SDS011;18717;48.034;11.186;2023-11-21T14:01:47;8.20;;;7.90;;
32228;SDS011;18717;48.034;11.186;2023-11-21T14:04:25;8.48;;;8.18;;
32228;SDS011;18717;48.034;11.186;2023-11-21T14:07:13;8.55;;;8.02;;
32228;SDS011;18717;48.034;11.186;2023-11-21T14:09:53;8.20;;;7.90;;
32228;SDS011;18717;48.034;11.186;2023-11-21T14:12:21;7.93;;;7.63;;
32228;SDS011;18717;48.034;11.186;2023-11-21T14:14:49;8.00;;;7.70;;
32228;SDS011;18717;48.034;11.186;2023-11-21T14:17:16;9.02;;;8.63;;
32228;SDS011;18717;48.034;11.186;2023-11-21T14:19:46;8.80;;;8.23;;
32228;SDS011;18717;48.034;11.186;2023-11-21T14:22:15;9.25;;;8.77;;
32228;SDS011;18717;48.034;11.186;2023-11-21T14:24:43;8.80;;;8.40;;
32228;SDS011;18717;48.034;11.186;2023-11-21T14:27:13;9.18;;;8.68;;
32228;SDS011;18717;48.034;11.186;2023-11-21T14:29:42;9.05;;;8.65;;
32228;SDS011;18717;48.034;11.186;2023-11-21T14:32:11;9.48;;;8.88;;
32228;SDS011;18717;48.034;11.186;2023-11-21T14:34:41;9.25;;;8.75;;
32228;SDS011;18717;48.034;11.186;2023-11-21T14:37:13;9.25;;;8.75;;
32228;SDS011;18717;48.034;11.186;2023-11-21T14:39:41;9.15;;;8.65;;
32228;SDS011;18717;48.034;11.186;2023-11-21T14:42:12;8.68;;;8.27;;
32228;SDS011;18717;48.034;11.186;2023-11-21T14:44:42;9.05;;;8.57;;
32228;SDS011;18717;48.034;11.186;2023-11-21T14:47:10;8.63;;;8.13;;
32228;SDS011;18717;48.034;11.186;2023-11-21T14:49:43;8.73;;;8.23;;